Time;durP1;ratioP1;P1;durP2;ratioP2;P2;SDS_P1;SDS_P2;PMS_P1;PMS_P2;Temp;Humidity;BMP_temperature;BMP_pressure;BME280_temperature;BME280_humidity;BME280_pressure;Samples;Min_cycle;Max_cycle;Signal;HPM_P1;HPM_P2
2022/10/01 00:01:11;;;;;;;5.63;5.32;;;12.70;76.70;;;;;;5086700;28;20028;-74
2022/10/01 00:03:37;;;;;;;5.70;5.40;;;12.70;76.70;;;;;;5086021;28;20020;-74
2022/10/01 00:06:26;;;;;;;5.40;5.10;;;12.70;76.70;;;;;;5086508;28;20074;-74
2022/10/01 00:08:52;;;;;;;5.63;5.32;;;12.70;76.80;;;;;;5087562;28;20036;-75
2022/10/01 00:11:25;;;;;;;5.80;5.50;;;12.80;76.90;;;;;;5086313;28;20107;-75
2022/10/01 00:13:52;;;;;;;5.35;5.05;;;12.80;76.80;;;;;;5086129;28;20464;-75
2022/10/01 00:16:29;;;;;;;6.25;5.88;;;12.90;76.90;;;;;;5086411;28;20306;-75
2022/10/01 00:18:56;;;;;;;;;;;13.00;76.80;;;;;;5086661;28;20139;-74
2022/10/01 00:21:31;;;;;;;6.10;5.80;;;13.00;76.70;;;;;;5069772;28;20318;-74
2022/10/01 00:24:03;;;;;;;6.00;5.70;;;13.00;76.60;;;;;;5085424;28;20055;-74
2022/10/01 00:26:34;;;;;;;6.00;5.70;;;12.90;76.60;;;;;;5087474;28;20024;-75
2022/10/01 00:29:10;;;;;;;6.70;6.30;;;12.90;76.60;;;;;;5086041;28;20044;-75
2022/10/01 00:31:36;;;;;;;7.05;6.65;;;12.90;76.60;;;;;;5086088;28;20043;-74
2022/10/01 00:34:02;;;;;;;7.13;6.72;;;12.80;76.60;;;;;;5069063;28;20028;-75
2022/10/01 00:36:30;;;;;;;7.53;7.13;;;12.80;76.60;;;;;;5087470;28;20424;-75
2022/10/01 00:38:59;;;;;;;8.05;7.65;;;12.70;76.60;;;;;;5087160;28;20036;-76
2022/10/01 00:41:26;;;;;;;7.35;6.95;;;12.70;76.70;;;;;;5086161;28;20081;-75
2022/10/01 00:43:57;;;;;;;7.40;7.00;;;12.70;76.80;;;;;;5087392;28;20104;-74
2022/10/01 00:46:42;;;;;;;8.48;8.07;;;12.70;77.30;;;;;;5087214;28;20031;-74
2022/10/01 00:49:23;;;;;;;7.72;7.32;;;12.70;76.80;;;;;;5087245;28;20404;-74
2022/10/01 00:51:56;;;;;;;8.35;7.95;;;12.70;76.80;;;;;;5085962;28;20089;-75
2022/10/01 00:54:37;;;;;;;8.75;8.35;;;12.70;76.80;;;;;;5086003;28;20042;-75
2022/10/01 00:57:05;;;;;;;7.78;7.38;;;12.60;76.80;;;;;;5087338;28;20028;-75
2022/10/01 00:59:32;;;;;;;8.05;7.65;;;12.60;76.80;;;;;;5085662;28;20462;-75
2022/10/01 01:01:58;;;;;;;9.45;8.98;;;12.60;76.80;;;;;;5087212;28;20082;-75
2022/10/01 01:04:25;;;;;;;8.90;8.35;;;12.60;76.80;;;;;;5068817;28;20508;-76
2022/10/01 01:06:56;;;;;;;;;;;12.60;76.90;;;;;;5069450;28;20038;-79
2022/10/01 01:09:29;;;;;;;8.00;7.60;;;12.60;77.40;;;;;;5087250;28;19912;-79
2022/10/01 01:12:07;;;;;;;8.27;7.88;;;12.70;76.90;;;;;;5085795;28;20275;-78
2022/10/01 01:14:37;;;;;;;9.00;8.60;;;12.70;76.80;;;;;;5085735;28;20028;-77
2022/10/01 01:17:10;;;;;;;8.10;7.70;;;12.70;76.80;;;;;;5087026;28;20051;-78
2022/10/01 01:19:51;;;;;;;7.60;7.20;;;12.70;76.80;;;;;;5086982;28;20024;-78
2022/10/01 01:22:22;;;;;;;7.15;6.75;;;12.80;77.00;;;;;;5086985;28;20020;-77
2022/10/01 01:24:54;;;;;;;7.70;7.30;;;12.80;76.80;;;;;;5087050;28;20021;-77
2022/10/01 01:27:39;;;;;;;7.75;7.35;;;12.80;76.70;;;;;;5085480;28;20464;-78
2022/10/01 01:30:07;;;;;;;8.43;8.02;;;12.80;76.60;;;;;;5086919;28;20039;-78
2022/10/01 01:32:54;;;;;;;8.30;7.90;;;12.70;76.60;;;;;;5086877;28;20024;-77
2022/10/01 01:35:30;;;;;;;8.48;8.07;;;12.70;76.70;;;;;;5088520;28;20028;-78
2022/10/01 01:38:00;;;;;;;;;;;12.70;76.90;;;;;;5091197;28;20028;-78
2022/10/01 01:40:29;;;;;;;8.38;7.97;;;12.70;77.00;;;;;;5090556;28;19998;-78
2022/10/01 01:42:56;;;;;;;9.18;8.75;;;12.70;76.80;;;;;;5090356;28;20016;-78
2022/10/01 01:45:28;;;;;;;9.10;8.70;;;12.80;76.70;;;;;;5089204;28;20389;-78
2022/10/01 01:47:57;;;;;;;9.60;9.10;;;12.80;76.70;;;;;;5090590;28;20020;-78
2022/10/01 01:50:25;;;;;;;10.38;9.88;;;12.70;76.60;;;;;;5090442;28;20039;-78
2022/10/01 01:52:53;;;;;;;9.80;9.30;;;12.70;76.70;;;;;;5089141;28;20175;-78
2022/10/01 01:55:20;;;;;;;9.95;9.45;;;12.60;76.70;;;;;;5089174;28;20118;-79
2022/10/01 01:57:46;;;;;;;8.40;8.00;;;12.60;76.80;;;;;;5089068;28;20099;-78
2022/10/01 02:00:13;;;;;;;9.00;8.60;;;12.50;76.80;;;;;;5089041;28;20106;-78
2022/10/01 02:02:41;;;;;;;9.77;9.27;;;12.50;76.80;;;;;;5090136;28;20028;-79
2022/10/01 02:05:12;;;;;;;10.40;9.90;;;12.50;76.90;;;;;;5090105;28;20032;-78
2022/10/01 02:07:41;;;;;;;9.93;9.43;;;12.50;76.80;;;;;;5090243;28;20100;-79
2022/10/01 02:10:12;;;;;;;9.30;8.90;;;12.40;76.80;;;;;;5090007;28;20055;-75
2022/10/01 02:13:15;;;;;;;9.73;9.23;;;12.40;76.80;;;;;;5088733;28;20028;-78
2022/10/01 02:16:06;;;;;;;9.60;9.10;;;12.50;77.00;;;;;;5090106;28;20112;-78
2022/10/01 02:18:54;;;;;;;9.35;8.93;;;12.50;77.00;;;;;;5089936;28;20501;-78
2022/10/01 02:21:27;;;;;;;9.70;9.20;;;12.60;77.00;;;;;;5089987;28;20055;-78
2022/10/01 02:24:14;;;;;;;9.05;8.65;;;12.70;77.00;;;;;;5089953;28;20092;-79
2022/10/01 02:26:44;;;;;;;9.60;9.10;;;12.70;76.90;;;;;;5088830;28;20031;-78
2022/10/01 02:29:15;;;;;;;10.35;9.85;;;12.70;76.70;;;;;;5088533;28;20047;-78
2022/10/01 02:31:41;;;;;;;9.50;9.00;;;12.70;76.70;;;;;;5089773;28;20035;-78
2022/10/01 02:34:07;;;;;;;11.32;10.82;;;12.70;76.70;;;;;;5088583;28;20490;-78
2022/10/01 02:36:35;;;;;;;10.60;10.10;;;12.70;76.70;;;;;;5089627;28;20098;-78
2022/10/01 02:39:03;;;;;;;10.13;9.63;;;12.70;76.60;;;;;;5089575;28;20036;-79
2022/10/01 02:41:34;;;;;;;10.55;10.05;;;12.70;76.60;;;;;;5089742;28;20036;-78
2022/10/01 02:44:08;;;;;;;10.60;10.10;;;12.60;76.70;;;;;;5089405;28;20024;-78
2022/10/01 02:47:01;;;;;;;9.55;9.05;;;12.60;76.70;;;;;;5087301;28;20031;-78
2022/10/01 02:49:28;;;;;;;10.40;9.90;;;12.50;76.80;;;;;;5088114;28;20051;-78
2022/10/01 02:52:08;;;;;;;8.90;8.50;;;12.50;76.90;;;;;;5089658;28;20099;-79
2022/10/01 02:54:44;;;;;;;8.98;8.57;;;12.50;76.90;;;;;;5089290;28;20050;-78
2022/10/01 02:57:21;;;;;;;8.60;8.20;;;12.60;77.00;;;;;;5087984;28;20024;-78
2022/10/01 02:59:48;;;;;;;8.93;8.52;;;12.70;77.00;;;;;;5089119;28;20483;-78
2022/10/01 03:02:14;;;;;;;7.95;7.55;;;12.70;77.00;;;;;;5089066;28;20020;-78
2022/10/01 03:04:40;;;;;;;9.68;9.18;;;12.70;76.90;;;;;;5087645;28;20028;-78
2022/10/01 03:07:06;;;;;;;9.10;8.70;;;12.80;76.90;;;;;;5088771;28;20165;-78
2022/10/01 03:09:33;;;;;;;10.10;9.60;;;12.80;76.90;;;;;;5088937;28;20482;-78
2022/10/01 03:12:00;;;;;;;10.32;9.82;;;12.80;76.80;;;;;;5088997;28;20035;-78
2022/10/01 03:14:27;;;;;;;10.10;9.60;;;12.80;76.70;;;;;;5088954;28;20027;-78
2022/10/01 03:16:53;;;;;;;;;;;12.70;76.60;;;;;;5089404;28;20039;-78
2022/10/01 03:19:19;;;;;;;9.63;9.13;;;12.60;76.60;;;;;;5087385;28;20343;-78
2022/10/01 03:21:45;;;;;;;;;;;12.50;76.60;;;;;;5087974;28;20051;-78
2022/10/01 03:24:10;;;;;;;10.88;10.38;;;12.40;76.60;;;;;;5087278;28;20363;-78
2022/10/01 03:26:36;;;;;;;10.55;10.05;;;12.40;76.70;;;;;;5087395;28;20036;-78
2022/10/01 03:29:03;;;;;;;11.65;11.15;;;12.30;77.30;;;;;;5087223;28;20048;-78
2022/10/01 03:31:29;;;;;;;10.23;9.73;;;12.30;76.80;;;;;;5088564;28;20024;-79
2022/10/01 03:33:59;;;;;;;11.88;11.38;;;12.30;76.80;;;;;;5088465;28;20027;-78
2022/10/01 03:36:25;;;;;;;11.02;10.52;;;12.30;76.90;;;;;;5088445;28;20481;-78
2022/10/01 03:38:51;;;;;;;12.10;11.57;;;12.20;76.80;;;;;;5088360;28;20471;-73
2022/10/01 03:41:17;;;;;;;11.63;11.13;;;12.10;76.70;;;;;;5087148;28;20095;-73
2022/10/01 03:43:43;;;;;;;11.27;10.77;;;12.10;76.80;;;;;;5070120;28;20105;-73
2022/10/01 03:46:08;;;;;;;12.05;11.52;;;12.10;76.90;;;;;;5088276;28;20020;-74
2022/10/01 03:48:34;;;;;;;12.23;11.68;;;12.00;76.90;;;;;;5070255;28;20028;-74
2022/10/01 03:51:00;;;;;;;12.80;12.20;;;12.00;76.90;;;;;;5086909;28;20039;-74
2022/10/01 03:53:27;;;;;;;12.10;11.60;;;12.00;76.90;;;;;;5086598;28;20056;-74
2022/10/01 03:55:53;;;;;;;12.13;11.63;;;11.90;76.90;;;;;;5088332;28;20177;-74
2022/10/01 03:58:19;;;;;;;11.57;11.07;;;12.00;77.00;;;;;;5069933;28;20397;-74
2022/10/01 04:00:46;;;;;;;11.60;11.10;;;11.90;77.00;;;;;;5088039;28;20028;-73
2022/10/01 04:03:14;;;;;;;12.02;11.52;;;12.00;77.00;;;;;;5086680;28;20266;-74
2022/10/01 04:05:41;;;;;;;13.00;12.40;;;12.00;77.00;;;;;;5086750;28;20037;-74
2022/10/01 04:08:07;;;;;;;12.60;12.00;;;11.90;77.00;;;;;;5087965;28;20028;-73
2022/10/01 04:10:33;;;;;;;13.52;12.93;;;12.00;77.10;;;;;;5086612;28;20117;-74
2022/10/01 04:12:58;;;;;;;12.90;12.30;;;12.00;77.10;;;;;;5069745;28;20036;-74
2022/10/01 04:15:24;;;;;;;12.50;11.90;;;11.90;77.00;;;;;;5086375;28;20561;-73
2022/10/01 04:17:50;;;;;;;13.30;12.70;;;11.90;77.00;;;;;;5069784;28;20032;-74
2022/10/01 04:20:17;;;;;;;13.00;12.40;;;11.90;77.00;;;;;;5087653;28;20063;-74
2022/10/01 04:22:43;;;;;;;13.13;12.52;;;11.90;77.00;;;;;;5086455;28;20565;-74
2022/10/01 04:25:09;;;;;;;;;;;11.90;77.00;;;;;;5086690;28;20116;-74
2022/10/01 04:27:36;;;;;;;11.43;10.93;;;11.90;77.00;;;;;;5086344;28;20006;-74
2022/10/01 04:30:03;;;;;;;14.20;13.60;;;11.90;77.00;;;;;;5086365;28;20038;-74
2022/10/01 04:32:29;;;;;;;13.35;12.75;;;11.90;76.90;;;;;;5086303;28;20032;-74
2022/10/01 04:34:54;;;;;;;15.07;14.48;;;11.90;77.00;;;;;;5069419;28;20032;-74
2022/10/01 04:37:21;;;;;;;13.82;13.23;;;11.90;77.00;;;;;;5086326;28;20071;-74
2022/10/01 04:39:47;;;;;;;15.27;14.60;;;11.80;77.00;;;;;;5086251;28;20043;-74
2022/10/01 04:42:13;;;;;;;13.15;12.55;;;11.80;77.00;;;;;;5087511;28;20016;-72
2022/10/01 04:44:39;;;;;;;;;;;11.80;77.00;;;;;;5086672;28;20036;-75
2022/10/01 04:47:05;;;;;;;14.73;14.13;;;11.80;77.00;;;;;;5086109;28;19904;-73
2022/10/01 04:49:32;;;;;;;14.00;13.40;;;11.80;77.00;;;;;;5069400;28;20136;-74
2022/10/01 04:52:01;;;;;;;14.45;13.85;;;11.80;77.00;;;;;;5086261;28;20024;-75
2022/10/01 04:54:26;;;;;;;14.60;14.00;;;11.80;77.00;;;;;;5086092;28;20082;-73
2022/10/01 04:56:52;;;;;;;16.13;15.43;;;11.80;77.00;;;;;;5087360;28;20028;-73
2022/10/01 04:59:18;;;;;;;17.30;16.60;;;11.80;77.00;;;;;;5086002;28;20100;-73
2022/10/01 05:01:44;;;;;;;16.70;16.00;;;11.80;77.00;;;;;;5087335;28;20047;-72
2022/10/01 05:04:10;;;;;;;16.33;15.63;;;11.80;77.00;;;;;;5052594;28;20474;-75
2022/10/01 05:06:36;;;;;;;18.00;17.30;;;11.70;77.00;;;;;;5087359;28;20031;-73
2022/10/01 05:09:02;;;;;;;17.75;17.05;;;11.70;77.00;;;;;;5085876;28;20032;-73
2022/10/01 05:11:28;;;;;;;18.65;17.85;;;11.80;77.10;;;;;;5089626;28;20040;-73
2022/10/01 05:13:54;;;;;;;18.20;17.50;;;11.80;77.20;;;;;;5091082;28;20085;-73
2022/10/01 05:16:21;;;;;;;17.45;16.75;;;11.80;77.20;;;;;;5089842;28;20039;-73
2022/10/01 05:18:46;;;;;;;18.00;17.30;;;11.90;77.20;;;;;;5089790;28;20032;-74
2022/10/01 05:21:14;;;;;;;19.73;18.92;;;11.90;77.20;;;;;;5091050;28;20556;-73
2022/10/01 05:23:43;;;;;;;19.23;18.42;;;12.00;77.10;;;;;;5056856;28;20130;-73
2022/10/01 05:26:09;;;;;;;19.15;18.35;;;12.00;77.00;;;;;;5089629;28;20035;-73
2022/10/01 05:28:35;;;;;;;20.67;19.88;;;12.00;76.90;;;;;;5089470;28;20036;-73
2022/10/01 05:31:02;;;;;;;20.00;19.20;;;11.90;76.90;;;;;;5089489;28;20086;-74
2022/10/01 05:33:29;;;;;;;19.50;18.70;;;11.90;76.90;;;;;;5089090;28;20028;-74
2022/10/01 05:35:58;;;;;;;20.45;19.65;;;11.90;77.00;;;;;;5089358;28;20406;-74
2022/10/01 05:38:24;;;;;;;19.80;19.00;;;11.80;77.00;;;;;;5090701;28;20409;-74
2022/10/01 05:40:50;;;;;;;20.02;19.23;;;11.80;77.00;;;;;;5090603;28;20028;-74
2022/10/01 05:43:16;;;;;;;20.60;19.80;;;11.80;77.10;;;;;;5090425;28;20050;-74
2022/10/01 05:45:42;;;;;;;20.00;19.20;;;11.80;77.10;;;;;;5089150;28;20382;-74
2022/10/01 05:48:08;;;;;;;20.02;19.23;;;11.80;77.10;;;;;;5090470;28;20032;-74
2022/10/01 05:50:39;;;;;;;20.63;19.83;;;11.80;77.10;;;;;;5089078;28;20039;-74
2022/10/01 05:53:06;;;;;;;19.90;19.10;;;11.80;77.10;;;;;;5088964;28;20115;-74
2022/10/01 05:55:35;;;;;;;19.05;18.25;;;11.80;77.20;;;;;;5089053;28;20100;-78
2022/10/01 05:58:03;;;;;;;19.45;18.65;;;11.90;77.30;;;;;;5089474;28;20028;-78
2022/10/01 06:00:30;;;;;;;19.25;18.45;;;11.90;77.30;;;;;;5088928;28;20024;-73
2022/10/01 06:02:57;;;;;;;19.33;18.52;;;12.00;77.30;;;;;;5088933;28;20179;-73
2022/10/01 06:05:23;;;;;;;22.25;21.35;;;12.10;77.20;;;;;;5088760;28;20028;-73
2022/10/01 06:07:49;;;;;;;20.63;19.83;;;12.20;77.20;;;;;;5090159;28;20020;-74
2022/10/01 06:10:17;;;;;;;19.33;18.52;;;12.30;77.20;;;;;;5071970;28;20557;-73
2022/10/01 06:12:43;;;;;;;19.55;18.75;;;12.30;77.10;;;;;;5089989;28;20119;-76
2022/10/01 06:15:10;;;;;;;18.88;18.08;;;12.30;77.00;;;;;;5088629;28;20241;-77
2022/10/01 06:17:36;;;;;;;21.20;20.40;;;12.40;77.10;;;;;;5088840;28;20076;-73
2022/10/01 06:20:02;;;;;;;20.67;19.88;;;12.40;77.10;;;;;;5089821;28;20488;-73
2022/10/01 06:22:27;;;;;;;21.10;20.30;;;12.50;77.10;;;;;;5088686;28;20028;-73
2022/10/01 06:24:54;;;;;;;21.90;21.00;;;12.40;77.00;;;;;;5088334;28;20465;-73
2022/10/01 06:27:19;;;;;;;22.70;21.80;;;12.40;76.90;;;;;;5088237;28;20123;-73
2022/10/01 06:29:45;;;;;;;23.05;22.15;;;12.40;77.00;;;;;;5071465;28;20470;-73
2022/10/01 06:32:17;;;;;;;22.30;21.40;;;12.40;77.00;;;;;;5071173;28;20033;-73
2022/10/01 06:34:43;;;;;;;22.67;21.77;;;12.30;77.00;;;;;;5089420;28;20028;-74
2022/10/01 06:37:08;;;;;;;22.17;21.27;;;12.20;77.10;;;;;;5089963;28;20032;-73
2022/10/01 06:39:34;;;;;;;23.55;22.65;;;12.20;77.10;;;;;;5089419;28;20068;-74
2022/10/01 06:42:00;;;;;;;23.30;22.40;;;12.10;77.10;;;;;;5088186;28;20551;-74
2022/10/01 06:44:25;;;;;;;24.20;23.27;;;12.10;77.20;;;;;;5071082;28;20036;-74
2022/10/01 06:46:52;;;;;;;22.65;21.75;;;12.10;77.20;;;;;;5071191;28;20081;-74
2022/10/01 06:49:19;;;;;;;22.58;21.67;;;12.10;77.20;;;;;;5089480;28;20090;-74
2022/10/01 06:54:29;;;;;;;23.10;22.20;;;12.00;77.20;;;;;;5089280;28;20042;-74
2022/10/01 06:56:55;;;;;;;21.98;21.08;;;12.00;77.30;;;;;;5088952;28;20401;-74
2022/10/01 06:59:21;;;;;;;21.58;20.73;;;12.10;77.40;;;;;;5087308;28;20028;-74
2022/10/01 07:01:49;;;;;;;23.05;22.15;;;12.10;77.50;;;;;;5087813;28;20034;-74
2022/10/01 07:04:15;;;;;;;21.33;20.48;;;12.30;77.50;;;;;;5088736;28;20175;-73
2022/10/01 07:06:40;;;;;;;22.33;21.42;;;12.30;77.30;;;;;;5070732;28;20589;-74
2022/10/01 07:09:06;;;;;;;20.77;19.98;;;12.40;77.30;;;;;;5087646;28;20036;-74
2022/10/01 07:11:32;;;;;;;20.38;19.58;;;12.30;77.20;;;;;;5088736;28;20110;-74
2022/10/01 07:13:59;;;;;;;19.92;19.13;;;12.40;77.30;;;;;;5088590;28;20535;-74
2022/10/01 07:16:25;;;;;;;19.90;19.10;;;12.40;77.30;;;;;;5087365;28;20284;-75
2022/10/01 07:18:51;;;;;;;17.58;16.88;;;12.40;77.30;;;;;;5070483;28;20387;-74
2022/10/01 07:21:17;;;;;;;17.85;17.15;;;12.40;77.30;;;;;;5087194;28;20028;-74
2022/10/01 07:23:42;;;;;;;18.20;17.50;;;12.50;77.40;;;;;;5087150;28;20509;-74
2022/10/01 07:26:08;;;;;;;17.33;16.63;;;12.50;77.40;;;;;;5087064;28;20036;-74
2022/10/01 07:28:34;;;;;;;15.68;14.98;;;12.60;77.40;;;;;;5069860;28;20048;-74
2022/10/01 07:31:03;;;;;;;15.75;15.05;;;12.60;77.40;;;;;;5070200;28;20046;-74
2022/10/01 07:33:29;;;;;;;15.27;14.65;;;12.80;77.60;;;;;;5086570;28;20546;-74
2022/10/01 07:35:58;;;;;;;14.18;13.57;;;12.90;77.40;;;;;;5088367;28;20121;-74
2022/10/01 07:38:23;;;;;;;14.10;13.50;;;13.00;77.40;;;;;;5087928;28;20073;-73
2022/10/01 07:40:51;;;;;;;13.35;12.75;;;13.10;77.40;;;;;;5086750;28;20025;-73
2022/10/01 07:43:17;;;;;;;12.73;12.13;;;13.20;77.30;;;;;;5086659;28;20039;-74
2022/10/01 07:45:43;;;;;;;;;;;13.20;77.20;;;;;;5088497;28;20016;-74
2022/10/01 07:48:09;;;;;;;11.07;10.57;;;13.30;77.40;;;;;;5086370;28;19908;-74
2022/10/01 07:50:35;;;;;;;9.90;9.40;;;13.40;77.30;;;;;;5086540;28;20028;-74
2022/10/01 07:53:01;;;;;;;9.75;9.25;;;13.50;77.30;;;;;;5087743;28;20042;-73
2022/10/01 07:55:29;;;;;;;6.85;6.45;;;13.60;77.30;;;;;;5087675;28;20106;-74
2022/10/01 07:57:56;;;;;;;6.20;5.85;;;13.80;77.70;;;;;;5087336;28;20018;-74
2022/10/01 08:00:24;;;;;;;7.60;7.20;;;14.10;77.80;;;;;;5085798;28;20028;-74
2022/10/01 08:02:52;;;;;;;7.30;6.90;;;14.40;77.50;;;;;;5086583;28;20064;-74
2022/10/01 08:05:20;;;;;;;6.65;6.25;;;14.50;77.10;;;;;;5086848;28;20039;-74
2022/10/01 08:07:47;;;;;;;5.13;4.82;;;14.40;77.10;;;;;;5087327;28;20077;-74
2022/10/01 08:10:14;;;;;;;3.15;2.95;;;14.50;77.30;;;;;;5085982;28;20032;-74
2022/10/01 08:12:43;;;;;;;2.30;2.10;;;14.80;78.30;;;;;;5087326;28;20059;-74
2022/10/01 08:15:14;;;;;;;2.67;2.47;;;15.60;79.30;;;;;;5053126;28;20493;-74
2022/10/01 08:17:41;;;;;;;2.30;2.10;;;16.70;79.20;;;;;;5087396;28;20444;-74
2022/10/01 08:20:08;;;;;;;2.90;2.70;;;17.60;78.20;;;;;;5069044;28;20051;-74
2022/10/01 08:22:35;;;;;;;3.10;2.90;;;17.70;76.40;;;;;;5087087;28;20047;-74
2022/10/01 08:25:00;;;;;;;;;;;17.50;75.90;;;;;;5086187;28;20102;-75
2022/10/01 08:27:26;;;;;;;3.25;3.05;;;17.30;76.10;;;;;;5085477;28;19940;-75
2022/10/01 08:29:53;;;;;;;3.90;3.60;;;17.10;76.20;;;;;;5087119;28;20076;-75
2022/10/01 08:32:19;;;;;;;;;;;16.90;76.10;;;;;;5086334;28;20462;-74
2022/10/01 08:34:45;;;;;;;3.80;3.50;;;16.80;77.00;;;;;;5086971;28;19943;-74
2022/10/01 08:37:11;;;;;;;3.20;3.00;;;16.90;76.80;;;;;;5085340;28;20036;-74
2022/10/01 08:39:37;;;;;;;3.90;3.60;;;16.80;76.70;;;;;;5086509;28;20056;-75
2022/10/01 08:42:24;;;;;;;3.00;2.80;;;16.70;76.90;;;;;;5069061;28;20558;-75
2022/10/01 08:44:51;;;;;;;2.60;2.40;;;16.80;77.40;;;;;;5086196;28;20013;-74
2022/10/01 08:47:29;;;;;;;2.60;2.40;;;16.90;77.00;;;;;;5085264;28;20481;-75
2022/10/01 08:50:01;;;;;;;2.90;2.70;;;16.80;76.80;;;;;;5086911;28;20028;-75
2022/10/01 08:52:35;;;;;;;2.47;2.28;;;16.80;76.90;;;;;;5086742;28;20077;-75
2022/10/01 08:55:16;;;;;;;2.60;2.40;;;16.80;77.40;;;;;;5085143;28;20095;-75
2022/10/01 08:57:53;;;;;;;1.92;1.83;;;16.90;77.20;;;;;;5086509;28;20512;-75
2022/10/01 09:00:19;;;;;;;0.98;0.98;;;17.20;77.80;;;;;;5086213;28;20024;-75
2022/10/01 09:02:50;;;;;;;0.70;0.70;;;18.00;79.00;;;;;;5086550;28;20107;-75
2022/10/01 09:05:44;;;;;;;0.65;0.65;;;19.10;79.30;;;;;;5085392;28;20031;-75
2022/10/01 09:08:42;;;;;;;0.30;0.30;;;20.40;79.10;;;;;;5081162;28;20020;-75
2022/10/01 09:11:22;;;;;;;0.20;0.20;;;21.40;78.30;;;;;;5073631;28;20036;-76
2022/10/01 09:14:08;;;;;;;0.05;0.05;;;22.30;77.60;;;;;;5085217;28;20024;-75
2022/10/01 09:17:05;;;;;;;0.00;0.00;;;23.00;77.00;;;;;;5079345;28;20037;-76
2022/10/01 09:20:00;;;;;;;0.10;0.10;;;22.50;75.30;;;;;;5064555;28;20075;-75
2022/10/01 09:22:26;;;;;;;0.00;0.00;;;22.60;77.30;;;;;;5066257;28;20159;-76
2022/10/01 09:25:19;;;;;;;0.00;0.00;;;23.40;77.90;;;;;;5065814;28;20024;-76
2022/10/01 09:27:45;;;;;;;0.00;0.00;;;24.10;77.60;;;;;;5066005;28;20059;-75
2022/10/01 09:30:20;;;;;;;0.00;0.00;;;24.00;75.80;;;;;;5066581;28;20025;-75
2022/10/01 09:38:10;;;;;;;0.00;0.00;;;22.10;76.10;;;;;;5345211;23;19921;-78
2022/10/01 09:40:53;;;;;;;0.00;0.00;;;21.70;76.50;;;;;;5008237;28;20041;-79
2022/10/01 09:43:22;;;;;;;0.00;0.00;;;21.30;76.60;;;;;;5025559;28;20026;-78
2022/10/01 09:45:50;;;;;;;0.00;0.00;;;21.60;78.40;;;;;;5025945;28;20025;-79
2022/10/01 09:48:37;;;;;;;0.00;0.00;;;22.50;79.10;;;;;;4992195;28;20095;-78
2022/10/01 09:51:06;;;;;;;0.00;0.00;;;23.20;78.10;;;;;;5009688;28;20117;-78
2022/10/01 09:53:43;;;;;;;0.00;0.00;;;23.20;76.60;;;;;;5009045;28;20029;-78
2022/10/01 09:56:29;;;;;;;0.00;0.00;;;22.80;76.40;;;;;;5028085;28;20473;-77
2022/10/01 09:59:00;;;;;;;0.00;0.00;;;22.80;77.10;;;;;;5012095;28;20022;-80
2022/10/01 10:01:34;;;;;;;0.00;0.00;;;22.60;77.00;;;;;;5013147;28;20041;-81
2022/10/01 10:04:00;;;;;;;0.00;0.00;;;22.40;77.50;;;;;;5013115;28;20026;-79
2022/10/01 10:06:27;;;;;;;;;;;22.40;77.70;;;;;;4997098;28;20083;-76
2022/10/01 10:08:56;;;;;;;0.00;0.00;;;22.40;77.70;;;;;;5012471;28;19913;-75
2022/10/01 10:11:27;;;;;;;0.20;0.10;;;22.20;77.40;;;;;;5012420;28;20025;-78
2022/10/01 10:14:04;;;;;;;0.40;0.10;;;22.00;77.20;;;;;;5030772;28;20059;-76
2022/10/01 10:16:35;;;;;;;0.00;0.00;;;21.70;77.20;;;;;;5012646;28;20128;-77
2022/10/01 10:19:18;;;;;;;0.00;0.00;;;21.40;77.20;;;;;;5012327;28;20040;-77
2022/10/01 10:21:53;;;;;;;0.00;0.00;;;21.10;77.00;;;;;;5011564;28;20029;-77
2022/10/01 10:24:25;;;;;;;0.00;0.00;;;20.80;76.90;;;;;;5012194;28;20101;-76
2022/10/01 10:26:57;;;;;;;0.00;0.00;;;20.50;77.00;;;;;;5011221;28;20112;-77
2022/10/01 10:29:35;;;;;;;0.00;0.00;;;20.30;77.30;;;;;;5012466;28;20404;-78
2022/10/01 10:32:33;;;;;;;0.00;0.00;;;20.10;77.20;;;;;;5012472;28;20025;-77
2022/10/01 10:35:04;;;;;;;0.00;0.00;;;20.00;77.10;;;;;;4964530;28;20037;-76
2022/10/01 10:37:35;;;;;;;0.00;0.00;;;19.90;77.10;;;;;;5031095;28;20026;-78
2022/10/01 10:40:01;;;;;;;0.00;0.00;;;19.80;77.50;;;;;;5029938;28;20057;-74
2022/10/01 10:42:27;;;;;;;0.00;0.00;;;20.00;77.70;;;;;;5012431;28;20026;-76
2022/10/01 10:44:57;;;;;;;0.00;0.00;;;20.00;77.00;;;;;;5011573;28;20071;-74
2022/10/01 10:47:25;;;;;;;0.00;0.00;;;19.90;77.30;;;;;;5012471;28;20018;-76
2022/10/01 10:49:55;;;;;;;0.00;0.00;;;20.40;78.70;;;;;;4995762;28;20079;-77
2022/10/01 10:52:31;;;;;;;0.00;0.00;;;21.00;78.10;;;;;;5029907;28;20048;-77
2022/10/01 10:54:58;;;;;;;0.00;0.00;;;21.10;76.80;;;;;;5011966;28;20033;-76
2022/10/01 10:57:28;;;;;;;0.00;0.00;;;20.80;76.20;;;;;;5011766;28;20190;-75
2022/10/01 11:00:00;;;;;;;0.10;0.10;;;20.20;75.70;;;;;;5030111;28;20026;-77
2022/10/01 11:02:30;;;;;;;0.10;0.10;;;19.80;76.60;;;;;;5011440;28;20608;-76
2022/10/01 11:05:00;;;;;;;0.10;0.10;;;19.40;76.60;;;;;;5011721;28;20034;-76
2022/10/01 11:07:26;;;;;;;0.20;0.20;;;19.10;76.90;;;;;;5010616;28;20447;-76
2022/10/01 11:10:10;;;;;;;0.10;0.10;;;18.80;77.40;;;;;;5010852;28;20120;-76
2022/10/01 11:12:49;;;;;;;0.00;0.00;;;19.40;80.00;;;;;;5010322;28;20043;-75
2022/10/01 11:15:39;;;;;;;0.00;0.00;;;20.90;81.20;;;;;;5028530;28;20031;-75
2022/10/01 11:19:00;;;;;;;0.00;0.00;;;22.40;80.60;;;;;;5029186;28;20033;-75
2022/10/01 11:21:56;;;;;;;0.00;0.00;;;24.00;79.70;;;;;;4968365;28;20067;-78
2022/10/01 11:24:44;;;;;;;0.00;0.00;;;25.10;79.00;;;;;;5010598;28;20563;-78
2022/10/01 11:27:41;;;;;;;0.00;0.00;;;25.70;78.10;;;;;;5011107;28;20098;-74
2022/10/01 11:30:19;;;;;;;0.00;0.00;;;25.90;78.00;;;;;;5011420;28;20029;-77
2022/10/01 11:33:22;;;;;;;0.00;0.00;;;26.00;78.20;;;;;;5029017;28;20032;-75
2022/10/01 11:36:19;;;;;;;0.00;0.00;;;25.70;77.40;;;;;;5010761;28;20083;-74
2022/10/01 11:39:02;;;;;;;0.00;0.00;;;25.10;77.20;;;;;;5010979;28;20132;-76
2022/10/01 11:41:47;;;;;;;0.00;0.00;;;24.30;76.80;;;;;;5010977;28;20494;-81
2022/10/01 11:44:38;;;;;;;0.00;0.00;;;23.70;77.60;;;;;;5027238;28;20031;-76
2022/10/01 11:47:19;;;;;;;0.00;0.00;;;24.20;80.00;;;;;;5009691;28;20115;-79
2022/10/01 11:50:02;;;;;;;0.00;0.00;;;25.30;79.80;;;;;;5011132;28;20378;-76
2022/10/01 11:52:52;;;;;;;0.00;0.00;;;25.90;78.20;;;;;;5026997;28;20384;-76
2022/10/01 12:01:17;;;;;;;0.00;0.00;;;24.70;77.50;;;;;;5028664;28;20032;-75
2022/10/01 12:03:52;;;;;;;0.00;0.00;;;24.30;77.70;;;;;;5028552;28;20018;-76
2022/10/01 12:06:39;;;;;;;0.20;0.10;;;24.00;77.50;;;;;;5028052;28;20053;-74
2022/10/01 12:09:08;;;;;;;;;;;23.40;77.20;;;;;;5010393;28;20395;-82
2022/10/01 12:12:00;;;;;;;0.00;0.00;;;22.90;77.20;;;;;;5011312;28;20041;-78
2022/10/01 12:14:56;;;;;;;0.00;0.00;;;22.70;78.50;;;;;;5010248;28;20025;-75
2022/10/01 12:17:51;;;;;;;0.00;0.00;;;22.80;78.50;;;;;;5027035;28;20474;-73
2022/10/01 12:20:22;;;;;;;0.00;0.00;;;22.80;78.10;;;;;;5026738;28;20625;-75
2022/10/01 12:22:49;;;;;;;0.00;0.00;;;22.60;77.90;;;;;;5028148;28;20045;-76
2022/10/01 12:25:16;;;;;;;0.00;0.00;;;22.40;77.60;;;;;;4993894;28;20105;-75
2022/10/01 12:27:46;;;;;;;0.00;0.00;;;22.10;77.40;;;;;;5027983;28;20559;-77
2022/10/01 12:30:16;;;;;;;0.65;0.22;;;21.70;77.40;;;;;;5010178;28;20029;-74
2022/10/01 12:32:51;;;;;;;0.10;0.05;;;21.50;77.30;;;;;;5010907;28;20048;-78
2022/10/01 12:35:16;;;;;;;0.00;0.00;;;21.20;77.10;;;;;;5010882;28;20447;-74
2022/10/01 12:38:01;;;;;;;;;;;20.90;77.10;;;;;;5010882;28;20080;-76
2022/10/01 12:40:48;;;;;;;0.00;0.00;;;20.60;77.20;;;;;;5010090;28;19912;-77
2022/10/01 12:43:47;;;;;;;0.00;0.00;;;20.40;77.20;;;;;;5009916;28;20049;-76
2022/10/01 12:46:32;;;;;;;0.00;0.00;;;20.30;77.40;;;;;;5028665;28;20413;-74
2022/10/01 12:49:22;;;;;;;0.00;0.00;;;20.30;77.80;;;;;;5028609;28;20021;-79
2022/10/01 12:51:58;;;;;;;0.00;0.00;;;20.40;77.70;;;;;;5009852;28;20026;-72
2022/10/01 12:54:56;;;;;;;0.00;0.00;;;20.70;78.10;;;;;;5027512;28;20029;-76
2022/10/01 12:57:48;;;;;;;0.00;0.00;;;21.70;79.60;;;;;;5027754;28;20267;-77
2022/10/01 13:00:20;;;;;;;0.00;0.00;;;22.90;79.10;;;;;;5027626;28;20033;-75
2022/10/01 13:03:20;;;;;;;0.00;0.00;;;23.60;78.50;;;;;;5027547;28;20021;-77
2022/10/01 13:06:02;;;;;;;0.00;0.00;;;24.00;78.20;;;;;;5027235;28;20025;-79
2022/10/01 13:08:47;;;;;;;0.00;0.00;;;23.80;76.90;;;;;;5009981;28;20037;-75
2022/10/01 13:11:23;;;;;;;0.00;0.00;;;23.40;77.10;;;;;;5027254;28;20099;-75
2022/10/01 13:13:52;;;;;;;0.00;0.00;;;22.90;76.70;;;;;;5013558;28;20059;-76
2022/10/01 13:16:37;;;;;;;0.00;0.00;;;22.50;76.80;;;;;;5012921;28;20762;-75
2022/10/01 13:19:13;;;;;;;0.00;0.00;;;22.00;77.00;;;;;;5029179;28;20358;-75
2022/10/01 13:22:06;;;;;;;0.00;0.00;;;21.60;77.00;;;;;;5046879;28;20410;-75